sensor_id;sensor_type;location;lat;lon;timestamp;P1;durP1;ratioP1;P2;durP2;ratioP2
6519;SDS011;3293;51.690;5.982;2022-09-09T00:08:19;3.50;;;3.07;;
6519;SDS011;3293;51.690;5.982;2022-09-09T00:23:56;4.97;;;3.33;;
6519;SDS011;3293;51.690;5.982;2022-09-09T00:34:14;6.27;;;3.70;;
6519;SDS011;3293;51.690;5.982;2022-09-09T00:44:34;5.93;;;4.40;;
6519;SDS011;3293;51.690;5.982;2022-09-09T00:49:39;4.73;;;4.27;;
6519;SDS011;3293;51.690;5.982;2022-09-09T00:55:10;7.43;;;4.40;;
6519;SDS011;3293;51.690;5.982;2022-09-09T01:00:19;4.30;;;3.90;;
6519;SDS011;3293;51.690;5.982;2022-09-09T01:05:29;4.47;;;4.03;;
6519;SDS011;3293;51.690;5.982;2022-09-09T01:15:45;5.13;;;4.63;;
6519;SDS011;3293;51.690;5.982;2022-09-09T01:20:55;4.77;;;4.13;;
6519;SDS011;3293;51.690;5.982;2022-09-09T01:31:30;5.50;;;4.50;;
6519;SDS011;3293;51.690;5.982;2022-09-09T01:36:38;5.30;;;4.37;;
6519;SDS011;3293;51.690;5.982;2022-09-09T01:41:51;6.73;;;5.00;;
6519;SDS011;3293;51.690;5.982;2022-09-09T01:46:52;5.47;;;4.60;;
6519;SDS011;3293;51.690;5.982;2022-09-09T01:51:53;6.13;;;4.90;;
6519;SDS011;3293;51.690;5.982;2022-09-09T02:02:24;7.77;;;5.43;;
6519;SDS011;3293;51.690;5.982;2022-09-09T02:12:29;5.10;;;4.60;;
6519;SDS011;3293;51.690;5.982;2022-09-09T02:17:31;7.47;;;5.20;;
6519;SDS011;3293;51.690;5.982;2022-09-09T02:22:35;6.50;;;5.30;;
6519;SDS011;3293;51.690;5.982;2022-09-09T02:27:39;8.43;;;5.60;;
6519;SDS011;3293;51.690;5.982;2022-09-09T02:32:43;10.60;;;5.60;;
6519;SDS011;3293;51.690;5.982;2022-09-09T02:37:45;6.37;;;5.77;;
6519;SDS011;3293;51.690;5.982;2022-09-09T02:42:46;6.80;;;5.50;;
6519;SDS011;3293;51.690;5.982;2022-09-09T02:47:50;7.23;;;5.23;;
6519;SDS011;3293;51.690;5.982;2022-09-09T02:53:11;7.47;;;5.80;;
6519;SDS011;3293;51.690;5.982;2022-09-09T02:58:42;7.23;;;5.13;;
6519;SDS011;3293;51.690;5.982;2022-09-09T03:03:42;12.90;;;6.90;;
6519;SDS011;3293;51.690;5.982;2022-09-09T03:08:43;11.90;;;6.40;;
6519;SDS011;3293;51.690;5.982;2022-09-09T03:13:43;9.60;;;6.43;;
6519;SDS011;3293;51.690;5.982;2022-09-09T03:18:43;12.47;;;6.77;;
6519;SDS011;3293;51.690;5.982;2022-09-09T03:23:44;8.70;;;5.97;;
6519;SDS011;3293;51.690;5.982;2022-09-09T03:28:44;9.20;;;5.90;;
6519;SDS011;3293;51.690;5.982;2022-09-09T03:33:44;11.17;;;7.00;;
6519;SDS011;3293;51.690;5.982;2022-09-09T03:38:44;13.03;;;7.60;;
6519;SDS011;3293;51.690;5.982;2022-09-09T03:43:44;8.57;;;6.73;;
6519;SDS011;3293;51.690;5.982;2022-09-09T03:48:44;12.67;;;8.03;;
6519;SDS011;3293;51.690;5.982;2022-09-09T03:53:43;13.73;;;7.63;;
6519;SDS011;3293;51.690;5.982;2022-09-09T03:58:43;13.97;;;7.67;;
6519;SDS011;3293;51.690;5.982;2022-09-09T04:03:43;10.40;;;6.80;;
6519;SDS011;3293;51.690;5.982;2022-09-09T04:08:46;11.13;;;7.80;;
6519;SDS011;3293;51.690;5.982;2022-09-09T04:13:51;18.60;;;8.57;;
6519;SDS011;3293;51.690;5.982;2022-09-09T04:18:51;10.20;;;7.30;;
6519;SDS011;3293;51.690;5.982;2022-09-09T04:23:52;14.23;;;8.73;;
6519;SDS011;3293;51.690;5.982;2022-09-09T04:28:52;12.27;;;7.70;;
6519;SDS011;3293;51.690;5.982;2022-09-09T04:33:52;12.93;;;7.33;;
6519;SDS011;3293;51.690;5.982;2022-09-09T04:38:52;12.27;;;7.40;;
6519;SDS011;3293;51.690;5.982;2022-09-09T04:43:52;14.73;;;8.20;;
6519;SDS011;3293;51.690;5.982;2022-09-09T04:48:52;17.10;;;7.27;;
6519;SDS011;3293;51.690;5.982;2022-09-09T04:53:53;9.90;;;7.13;;
6519;SDS011;3293;51.690;5.982;2022-09-09T04:58:53;17.30;;;7.70;;
6519;SDS011;3293;51.690;5.982;2022-09-09T05:03:54;15.87;;;7.00;;
6519;SDS011;3293;51.690;5.982;2022-09-09T05:08:54;11.40;;;6.83;;
6519;SDS011;3293;51.690;5.982;2022-09-09T05:13:54;10.63;;;6.30;;
6519;SDS011;3293;51.690;5.982;2022-09-09T05:18:55;13.13;;;6.13;;
6519;SDS011;3293;51.690;5.982;2022-09-09T05:23:56;12.40;;;6.10;;
6519;SDS011;3293;51.690;5.982;2022-09-09T05:28:55;13.10;;;6.07;;
6519;SDS011;3293;51.690;5.982;2022-09-09T05:33:56;12.90;;;6.00;;
6519;SDS011;3293;51.690;5.982;2022-09-09T05:38:56;11.40;;;5.67;;
6519;SDS011;3293;51.690;5.982;2022-09-09T05:43:56;13.43;;;5.43;;
6519;SDS011;3293;51.690;5.982;2022-09-09T05:48:58;9.53;;;5.00;;
6519;SDS011;3293;51.690;5.982;2022-09-09T05:53:58;8.83;;;4.80;;
6519;SDS011;3293;51.690;5.982;2022-09-09T05:58:58;11.60;;;4.93;;
6519;SDS011;3293;51.690;5.982;2022-09-09T06:03:59;9.53;;;4.50;;
6519;SDS011;3293;51.690;5.982;2022-09-09T06:08:59;10.03;;;4.30;;
6519;SDS011;3293;51.690;5.982;2022-09-09T06:14:00;7.60;;;4.07;;
6519;SDS011;3293;51.690;5.982;2022-09-09T06:19:00;11.43;;;4.87;;
6519;SDS011;3293;51.690;5.982;2022-09-09T06:24:02;12.20;;;4.63;;
6519;SDS011;3293;51.690;5.982;2022-09-09T06:29:03;10.07;;;3.80;;
6519;SDS011;3293;51.690;5.982;2022-09-09T06:34:04;11.80;;;4.20;;
6519;SDS011;3293;51.690;5.982;2022-09-09T06:39:06;8.17;;;3.43;;
6519;SDS011;3293;51.690;5.982;2022-09-09T06:44:07;9.57;;;3.57;;
6519;SDS011;3293;51.690;5.982;2022-09-09T06:49:08;7.50;;;3.50;;
6519;SDS011;3293;51.690;5.982;2022-09-09T06:54:09;7.32;;;3.55;;
6519;SDS011;3293;51.690;5.982;2022-09-09T06:59:10;6.47;;;3.35;;
6519;SDS011;3293;51.690;5.982;2022-09-09T07:04:11;12.50;;;3.20;;
6519;SDS011;3293;51.690;5.982;2022-09-09T07:09:13;10.43;;;3.00;;
6519;SDS011;3293;51.690;5.982;2022-09-09T07:14:15;6.15;;;2.85;;
6519;SDS011;3293;51.690;5.982;2022-09-09T07:19:16;11.23;;;3.35;;
6519;SDS011;3293;51.690;5.982;2022-09-09T07:24:16;10.77;;;3.55;;
6519;SDS011;3293;51.690;5.982;2022-09-09T07:29:16;12.38;;;3.63;;
6519;SDS011;3293;51.690;5.982;2022-09-09T07:34:16;13.18;;;2.92;;
6519;SDS011;3293;51.690;5.982;2022-09-09T07:39:16;5.57;;;2.92;;
6519;SDS011;3293;51.690;5.982;2022-09-09T07:44:18;9.18;;;3.00;;
6519;SDS011;3293;51.690;5.982;2022-09-09T07:49:22;4.97;;;2.63;;
6519;SDS011;3293;51.690;5.982;2022-09-09T07:54:22;11.38;;;3.20;;
6519;SDS011;3293;51.690;5.982;2022-09-09T07:59:22;5.35;;;2.58;;
6519;SDS011;3293;51.690;5.982;2022-09-09T08:04:23;8.85;;;2.67;;
6519;SDS011;3293;51.690;5.982;2022-09-09T08:09:24;11.70;;;3.40;;
6519;SDS011;3293;51.690;5.982;2022-09-09T08:14:31;6.20;;;2.92;;
6519;SDS011;3293;51.690;5.982;2022-09-09T08:19:31;8.48;;;3.20;;
6519;SDS011;3293;51.690;5.982;2022-09-09T08:24:35;11.85;;;3.40;;
6519;SDS011;3293;51.690;5.982;2022-09-09T08:29:35;7.25;;;2.55;;
6519;SDS011;3293;51.690;5.982;2022-09-09T08:34:37;7.05;;;2.20;;
6519;SDS011;3293;51.690;5.982;2022-09-09T08:39:37;5.95;;;2.65;;
6519;SDS011;3293;51.690;5.982;2022-09-09T09:12:11;10.52;;;2.40;;
6519;SDS011;3293;51.690;5.982;2022-09-09T09:17:20;8.25;;;2.40;;
6519;SDS011;3293;51.690;5.982;2022-09-09T09:22:30;6.47;;;2.35;;
6519;SDS011;3293;51.690;5.982;2022-09-09T09:27:58;8.52;;;3.00;;
6519;SDS011;3293;51.690;5.982;2022-09-09T09:38:56;9.10;;;2.25;;
6519;SDS011;3293;51.690;5.982;2022-09-09T09:43:59;5.78;;;2.28;;
6519;SDS011;3293;51.690;5.982;2022-09-09T09:49:01;8.73;;;2.10;;
6519;SDS011;3293;51.690;5.982;2022-09-09T10:04:22;8.35;;;2.30;;
6519;SDS011;3293;51.690;5.982;2022-09-09T10:09:26;9.15;;;2.70;;
6519;SDS011;3293;51.690;5.982;2022-09-09T10:19:54;5.38;;;2.55;;
6519;SDS011;3293;51.690;5.982;2022-09-09T10:25:10;4.28;;;2.40;;
6519;SDS011;3293;51.690;5.982;2022-09-09T10:30:14;8.43;;;2.20;;
6519;SDS011;3293;51.690;5.982;2022-09-09T10:40:41;6.97;;;2.50;;
6519;SDS011;3293;51.690;5.982;2022-09-09T10:45:55;6.55;;;2.58;;
6519;SDS011;3293;51.690;5.982;2022-09-09T10:56:25;5.65;;;2.05;;
6519;SDS011;3293;51.690;5.982;2022-09-09T11:02:11;8.43;;;2.20;;
6519;SDS011;3293;51.690;5.982;2022-09-09T11:06:56;6.22;;;2.03;;
6519;SDS011;3293;51.690;5.982;2022-09-09T11:11:57;5.03;;;2.25;;
6519;SDS011;3293;51.690;5.982;2022-09-09T11:17:00;6.68;;;2.25;;
6519;SDS011;3293;51.690;5.982;2022-09-09T11:27:25;4.95;;;2.30;;
6519;SDS011;3293;51.690;5.982;2022-09-09T11:42:43;6.32;;;2.50;;
6519;SDS011;3293;51.690;5.982;2022-09-09T11:47:50;6.93;;;2.72;;
6519;SDS011;3293;51.690;5.982;2022-09-09T11:53:03;11.77;;;3.45;;
6519;SDS011;3293;51.690;5.982;2022-09-09T12:08:44;6.33;;;3.20;;
6519;SDS011;3293;51.690;5.982;2022-09-09T12:13:58;9.13;;;3.20;;
6519;SDS011;3293;51.690;5.982;2022-09-09T12:19:04;6.67;;;2.90;;
6519;SDS011;3293;51.690;5.982;2022-09-09T12:24:11;5.55;;;2.53;;
6519;SDS011;3293;51.690;5.982;2022-09-09T12:34:40;7.15;;;2.67;;
6519;SDS011;3293;51.690;5.982;2022-09-09T12:39:43;7.32;;;2.95;;
6519;SDS011;3293;51.690;5.982;2022-09-09T12:44:55;5.28;;;3.17;;
6519;SDS011;3293;51.690;5.982;2022-09-09T12:49:57;5.22;;;3.25;;
6519;SDS011;3293;51.690;5.982;2022-09-09T12:54:57;3.72;;;3.30;;
6519;SDS011;3293;51.690;5.982;2022-09-09T13:00:11;5.15;;;2.80;;
6519;SDS011;3293;51.690;5.982;2022-09-09T13:05:21;6.97;;;3.38;;
6519;SDS011;3293;51.690;5.982;2022-09-09T13:10:26;6.07;;;3.58;;
6519;SDS011;3293;51.690;5.982;2022-09-09T13:15:30;5.68;;;2.88;;
6519;SDS011;3293;51.690;5.982;2022-09-09T13:20:30;4.32;;;2.92;;
6519;SDS011;3293;51.690;5.982;2022-09-09T13:25:30;5.88;;;3.28;;
6519;SDS011;3293;51.690;5.982;2022-09-09T13:30:37;13.13;;;3.60;;
6519;SDS011;3293;51.690;5.982;2022-09-09T13:35:54;6.90;;;3.08;;
6519;SDS011;3293;51.690;5.982;2022-09-09T13:40:55;6.07;;;3.00;;
6519;SDS011;3293;51.690;5.982;2022-09-09T13:45:59;7.97;;;3.38;;
6519;SDS011;3293;51.690;5.982;2022-09-09T13:51:02;4.15;;;3.10;;
6519;SDS011;3293;51.690;5.982;2022-09-09T13:56:04;4.78;;;2.67;;
6519;SDS011;3293;51.690;5.982;2022-09-09T14:01:04;5.70;;;3.17;;
6519;SDS011;3293;51.690;5.982;2022-09-09T14:06:04;9.55;;;3.05;;
6519;SDS011;3293;51.690;5.982;2022-09-09T14:11:04;5.38;;;2.72;;
6519;SDS011;3293;51.690;5.982;2022-09-09T14:16:04;7.32;;;2.75;;
6519;SDS011;3293;51.690;5.982;2022-09-09T14:21:04;7.28;;;3.25;;
6519;SDS011;3293;51.690;5.982;2022-09-09T14:26:05;5.72;;;2.40;;
6519;SDS011;3293;51.690;5.982;2022-09-09T14:31:05;5.38;;;2.50;;
6519;SDS011;3293;51.690;5.982;2022-09-09T14:36:06;5.15;;;2.30;;
6519;SDS011;3293;51.690;5.982;2022-09-09T14:41:06;4.40;;;1.90;;
6519;SDS011;3293;51.690;5.982;2022-09-09T14:46:09;4.85;;;1.88;;
6519;SDS011;3293;51.690;5.982;2022-09-09T14:51:22;3.30;;;2.05;;
6519;SDS011;3293;51.690;5.982;2022-09-09T14:56:25;3.58;;;2.05;;
6519;SDS011;3293;51.690;5.982;2022-09-09T15:01:27;5.70;;;2.20;;
6519;SDS011;3293;51.690;5.982;2022-09-09T15:06:29;5.43;;;2.08;;
6519;SDS011;3293;51.690;5.982;2022-09-09T15:11:35;5.10;;;1.95;;
6519;SDS011;3293;51.690;5.982;2022-09-09T15:16:37;5.55;;;2.65;;
6519;SDS011;3293;51.690;5.982;2022-09-09T15:21:37;4.20;;;2.50;;
6519;SDS011;3293;51.690;5.982;2022-09-09T15:26:37;7.80;;;2.25;;
6519;SDS011;3293;51.690;5.982;2022-09-09T15:31:37;3.83;;;2.00;;
6519;SDS011;3293;51.690;5.982;2022-09-09T15:36:39;4.95;;;1.98;;
6519;SDS011;3293;51.690;5.982;2022-09-09T15:41:44;6.13;;;2.50;;
6519;SDS011;3293;51.690;5.982;2022-09-09T15:46:48;3.97;;;2.40;;
6519;SDS011;3293;51.690;5.982;2022-09-09T15:51:53;8.60;;;2.88;;
6519;SDS011;3293;51.690;5.982;2022-09-09T15:56:58;4.07;;;2.55;;
6519;SDS011;3293;51.690;5.982;2022-09-09T16:02:00;4.32;;;2.13;;
6519;SDS011;3293;51.690;5.982;2022-09-09T16:07:02;7.07;;;2.25;;
6519;SDS011;3293;51.690;5.982;2022-09-09T16:12:04;6.78;;;2.58;;
6519;SDS011;3293;51.690;5.982;2022-09-09T16:17:08;4.55;;;2.05;;
6519;SDS011;3293;51.690;5.982;2022-09-09T16:22:09;3.47;;;1.40;;
6519;SDS011;3293;51.690;5.982;2022-09-09T16:27:09;2.83;;;1.43;;
6519;SDS011;3293;51.690;5.982;2022-09-09T16:32:10;2.10;;;1.40;;
6519;SDS011;3293;51.690;5.982;2022-09-09T16:37:11;1.53;;;1.40;;
6519;SDS011;3293;51.690;5.982;2022-09-09T16:42:11;1.60;;;1.50;;
6519;SDS011;3293;51.690;5.982;2022-09-09T16:47:11;1.40;;;1.20;;
6519;SDS011;3293;51.690;5.982;2022-09-09T16:52:11;1.73;;;1.40;;
6519;SDS011;3293;51.690;5.982;2022-09-09T16:57:11;2.13;;;1.47;;
6519;SDS011;3293;51.690;5.982;2022-09-09T17:02:11;3.73;;;1.80;;
6519;SDS011;3293;51.690;5.982;2022-09-09T17:07:11;3.30;;;1.70;;
6519;SDS011;3293;51.690;5.982;2022-09-09T17:12:11;4.63;;;1.60;;
6519;SDS011;3293;51.690;5.982;2022-09-09T17:17:11;2.33;;;1.50;;
6519;SDS011;3293;51.690;5.982;2022-09-09T17:22:11;3.40;;;1.93;;
6519;SDS011;3293;51.690;5.982;2022-09-09T17:27:11;2.53;;;1.80;;
6519;SDS011;3293;51.690;5.982;2022-09-09T17:32:12;2.27;;;2.00;;
6519;SDS011;3293;51.690;5.982;2022-09-09T17:37:14;2.60;;;2.30;;
6519;SDS011;3293;51.690;5.982;2022-09-09T17:42:14;3.03;;;2.40;;
6519;SDS011;3293;51.690;5.982;2022-09-09T17:47:14;4.57;;;2.57;;
6519;SDS011;3293;51.690;5.982;2022-09-09T17:52:14;4.27;;;2.47;;
6519;SDS011;3293;51.690;5.982;2022-09-09T17:57:15;5.30;;;2.83;;
6519;SDS011;3293;51.690;5.982;2022-09-09T18:02:18;5.70;;;2.73;;
6519;SDS011;3293;51.690;5.982;2022-09-09T18:07:18;6.03;;;3.13;;
6519;SDS011;3293;51.690;5.982;2022-09-09T18:12:18;3.43;;;2.80;;
6519;SDS011;3293;51.690;5.982;2022-09-09T18:17:18;3.53;;;2.83;;
6519;SDS011;3293;51.690;5.982;2022-09-09T18:22:18;7.20;;;2.87;;
6519;SDS011;3293;51.690;5.982;2022-09-09T18:27:18;3.90;;;2.57;;
6519;SDS011;3293;51.690;5.982;2022-09-09T18:32:18;2.77;;;2.27;;
6519;SDS011;3293;51.690;5.982;2022-09-09T18:37:18;4.30;;;2.27;;
6519;SDS011;3293;51.690;5.982;2022-09-09T18:42:18;3.03;;;2.00;;
6519;SDS011;3293;51.690;5.982;2022-09-09T18:47:18;2.80;;;2.50;;
6519;SDS011;3293;51.690;5.982;2022-09-09T18:52:20;3.17;;;2.20;;
6519;SDS011;3293;51.690;5.982;2022-09-09T18:57:19;3.10;;;2.90;;
6519;SDS011;3293;51.690;5.982;2022-09-09T19:02:19;2.87;;;2.67;;
6519;SDS011;3293;51.690;5.982;2022-09-09T19:07:20;3.10;;;2.80;;
6519;SDS011;3293;51.690;5.982;2022-09-09T19:12:20;3.30;;;3.00;;
6519;SDS011;3293;51.690;5.982;2022-09-09T19:17:20;5.10;;;3.00;;
6519;SDS011;3293;51.690;5.982;2022-09-09T19:22:20;5.10;;;3.00;;
6519;SDS011;3293;51.690;5.982;2022-09-09T19:27:21;3.07;;;2.70;;
6519;SDS011;3293;51.690;5.982;2022-09-09T19:32:21;3.30;;;3.00;;
6519;SDS011;3293;51.690;5.982;2022-09-09T19:37:21;4.50;;;3.40;;
6519;SDS011;3293;51.690;5.982;2022-09-09T19:42:21;4.40;;;3.80;;
6519;SDS011;3293;51.690;5.982;2022-09-09T19:47:21;4.43;;;4.03;;
6519;SDS011;3293;51.690;5.982;2022-09-09T19:52:22;7.53;;;4.43;;
6519;SDS011;3293;51.690;5.982;2022-09-09T19:57:22;6.17;;;4.77;;
6519;SDS011;3293;51.690;5.982;2022-09-09T20:02:22;6.40;;;4.80;;
6519;SDS011;3293;51.690;5.982;2022-09-09T20:07:23;8.03;;;5.57;;
6519;SDS011;3293;51.690;5.982;2022-09-09T20:12:23;6.80;;;4.83;;
6519;SDS011;3293;51.690;5.982;2022-09-09T20:17:23;8.70;;;6.13;;
6519;SDS011;3293;51.690;5.982;2022-09-09T20:22:23;7.70;;;7.00;;
6519;SDS011;3293;51.690;5.982;2022-09-09T20:27:23;5.90;;;5.30;;
6519;SDS011;3293;51.690;5.982;2022-09-09T20:32:23;7.77;;;6.50;;
6519;SDS011;3293;51.690;5.982;2022-09-09T20:37:24;7.73;;;6.87;;
6519;SDS011;3293;51.690;5.982;2022-09-09T20:42:24;7.43;;;6.77;;
6519;SDS011;3293;51.690;5.982;2022-09-09T20:47:24;7.73;;;6.97;;
6519;SDS011;3293;51.690;5.982;2022-09-09T20:52:24;8.50;;;6.83;;
6519;SDS011;3293;51.690;5.982;2022-09-09T20:57:24;9.83;;;6.73;;
6519;SDS011;3293;51.690;5.982;2022-09-09T21:02:24;9.43;;;7.10;;
6519;SDS011;3293;51.690;5.982;2022-09-09T21:07:24;7.40;;;6.60;;
6519;SDS011;3293;51.690;5.982;2022-09-09T21:12:26;7.77;;;6.70;;
6519;SDS011;3293;51.690;5.982;2022-09-09T21:17:26;11.27;;;7.60;;
6519;SDS011;3293;51.690;5.982;2022-09-09T21:22:27;10.73;;;7.93;;
6519;SDS011;3293;51.690;5.982;2022-09-09T21:27:28;10.83;;;8.20;;
6519;SDS011;3293;51.690;5.982;2022-09-09T21:32:28;10.03;;;7.20;;
6519;SDS011;3293;51.690;5.982;2022-09-09T21:37:28;11.13;;;7.90;;
6519;SDS011;3293;51.690;5.982;2022-09-09T21:42:28;10.13;;;7.63;;
6519;SDS011;3293;51.690;5.982;2022-09-09T21:47:28;14.03;;;8.03;;
6519;SDS011;3293;51.690;5.982;2022-09-09T21:52:28;9.90;;;7.67;;
6519;SDS011;3293;51.690;5.982;2022-09-09T21:57:31;9.03;;;6.70;;
6519;SDS011;3293;51.690;5.982;2022-09-09T22:02:31;10.57;;;7.10;;
6519;SDS011;3293;51.690;5.982;2022-09-09T22:07:33;12.17;;;7.03;;
6519;SDS011;3293;51.690;5.982;2022-09-09T22:12:34;14.67;;;7.43;;
6519;SDS011;3293;51.690;5.982;2022-09-09T22:17:35;11.00;;;7.80;;
6519;SDS011;3293;51.690;5.982;2022-09-09T22:22:35;10.17;;;7.90;;
6519;SDS011;3293;51.690;5.982;2022-09-09T22:27:35;11.13;;;7.93;;
6519;SDS011;3293;51.690;5.982;2022-09-09T22:32:34;11.87;;;7.50;;
6519;SDS011;3293;51.690;5.982;2022-09-09T22:37:34;16.23;;;7.97;;
6519;SDS011;3293;51.690;5.982;2022-09-09T22:42:34;14.47;;;7.87;;
6519;SDS011;3293;51.690;5.982;2022-09-09T22:47:35;9.90;;;7.00;;
6519;SDS011;3293;51.690;5.982;2022-09-09T22:52:35;11.73;;;7.60;;
6519;SDS011;3293;51.690;5.982;2022-09-09T22:57:35;14.53;;;7.73;;
6519;SDS011;3293;51.690;5.982;2022-09-09T23:02:35;11.53;;;6.97;;
6519;SDS011;3293;51.690;5.982;2022-09-09T23:07:37;14.70;;;7.90;;
6519;SDS011;3293;51.690;5.982;2022-09-09T23:12:37;14.77;;;7.60;;
6519;SDS011;3293;51.690;5.982;2022-09-09T23:17:38;14.90;;;8.63;;
6519;SDS011;3293;51.690;5.982;2022-09-09T23:22:39;10.63;;;7.80;;
6519;SDS011;3293;51.690;5.982;2022-09-09T23:27:39;13.57;;;7.97;;
6519;SDS011;3293;51.690;5.982;2022-09-09T23:32:39;12.97;;;6.87;;
6519;SDS011;3293;51.690;5.982;2022-09-09T23:37:40;18.67;;;8.77;;
6519;SDS011;3293;51.690;5.982;2022-09-09T23:42:40;23.33;;;8.63;;
6519;SDS011;3293;51.690;5.982;2022-09-09T23:47:39;12.60;;;8.03;;
6519;SDS011;3293;51.690;5.982;2022-09-09T23:52:39;17.53;;;9.73;;
6519;SDS011;3293;51.690;5.982;2022-09-09T23:57:42;16.90;;;9.43;;
